createdAt,value
2023-04-02T00:01:35.000Z,9.3
2023-04-02T00:02:41.000Z,9
2023-04-02T00:03:47.000Z,9.6
2023-04-02T00:04:53.000Z,9.3
2023-04-02T00:05:59.000Z,8.7
2023-04-02T00:07:05.000Z,9
2023-04-02T00:08:10.000Z,9.6
2023-04-02T00:09:16.000Z,9
2023-04-02T00:10:22.000Z,9
2023-04-02T00:11:28.000Z,9.6
2023-04-02T00:12:34.000Z,8.7
2023-04-02T00:13:40.000Z,9.6
2023-04-02T00:14:46.000Z,9
2023-04-02T00:15:51.000Z,8
2023-04-02T00:18:03.000Z,9.6
2023-04-02T00:20:15.000Z,8.7
2023-04-02T00:21:21.000Z,9.9
2023-04-02T00:22:26.000Z,9.3
2023-04-02T00:23:32.000Z,8.7
2023-04-02T00:24:38.000Z,9
2023-04-02T00:25:44.000Z,9
2023-04-02T00:26:51.000Z,9
2023-04-02T00:27:57.000Z,8.7
2023-04-02T00:29:02.000Z,9.6
2023-04-02T00:31:13.000Z,9
2023-04-02T00:32:19.000Z,9
2023-04-02T00:34:31.000Z,8.7
2023-04-02T00:35:37.000Z,9.9
2023-04-02T00:36:43.000Z,9.6
2023-04-02T00:37:50.000Z,8.7
2023-04-02T00:38:56.000Z,9.6
2023-04-02T00:40:02.000Z,9.3
2023-04-02T00:41:08.000Z,8.7
2023-04-02T00:42:14.000Z,8.7
2023-04-02T00:43:20.000Z,9
2023-04-02T00:44:25.000Z,8.7
2023-04-02T00:45:31.000Z,8.7
2023-04-02T00:46:37.000Z,9.6
2023-04-02T00:47:43.000Z,9
2023-04-02T00:48:49.000Z,9
2023-04-02T00:49:55.000Z,9
2023-04-02T00:51:01.000Z,9
2023-04-02T00:52:07.000Z,9
2023-04-02T00:53:14.000Z,9.3
2023-04-02T00:54:20.000Z,9.3
2023-04-02T00:56:31.000Z,9
2023-04-02T00:57:36.000Z,9
2023-04-02T00:58:41.000Z,9
2023-04-02T00:59:47.000Z,9
2023-04-02T01:00:53.000Z,9
2023-04-02T01:03:05.000Z,9.6
2023-04-02T01:04:11.000Z,8.7
2023-04-02T01:05:18.000Z,9.6
2023-04-02T01:06:24.000Z,9
2023-04-02T01:07:30.000Z,9.6
2023-04-02T01:09:42.000Z,8.7
2023-04-02T01:10:48.000Z,9
2023-04-02T01:11:53.000Z,9
2023-04-02T01:15:10.000Z,9
2023-04-02T01:16:16.000Z,9.6
2023-04-02T01:17:22.000Z,9
2023-04-02T01:18:28.000Z,8.7
2023-04-02T01:19:35.000Z,10.3
2023-04-02T01:20:41.000Z,9
2023-04-02T01:21:47.000Z,9
2023-04-02T01:22:53.000Z,9.3
2023-04-02T01:23:59.000Z,8.7
2023-04-02T01:26:11.000Z,9.6
2023-04-02T01:27:17.000Z,9
2023-04-02T01:28:23.000Z,9.3
2023-04-02T01:29:29.000Z,9
2023-04-02T01:30:34.000Z,8.7
2023-04-02T01:31:40.000Z,9.3
2023-04-02T01:33:53.000Z,8.7
2023-04-02T01:34:59.000Z,8.3
2023-04-02T01:36:05.000Z,9.6
2023-04-02T01:37:11.000Z,9
2023-04-02T01:38:17.000Z,9.3
2023-04-02T01:39:23.000Z,8.7
2023-04-02T01:40:29.000Z,8.3
2023-04-02T01:41:35.000Z,9
2023-04-02T01:42:41.000Z,9.3
2023-04-02T01:43:47.000Z,8.7
2023-04-02T01:44:53.000Z,8.3
2023-04-02T01:45:58.000Z,9.3
2023-04-02T01:47:04.000Z,9.3
2023-04-02T01:48:10.000Z,9.3
2023-04-02T01:49:17.000Z,8.7
2023-04-02T01:50:22.000Z,8.7
2023-04-02T01:51:27.000Z,9
2023-04-02T01:52:33.000Z,9.3
2023-04-02T01:53:39.000Z,9
2023-04-02T01:54:45.000Z,8.3
2023-04-02T01:55:51.000Z,8.3
2023-04-02T01:58:03.000Z,9.3
2023-04-02T01:59:09.000Z,9.6
2023-04-02T02:00:16.000Z,9
2023-04-02T02:01:22.000Z,8.3
2023-04-02T02:02:28.000Z,8
2023-04-02T02:03:34.000Z,8.7
2023-04-02T02:04:40.000Z,8.7
2023-04-02T02:05:45.000Z,8.3
2023-04-02T02:06:51.000Z,8
2023-04-02T02:07:57.000Z,8.7
2023-04-02T02:09:03.000Z,8.7
2023-04-02T02:10:09.000Z,8.7
2023-04-02T02:11:15.000Z,9.6
2023-04-02T02:12:21.000Z,9
2023-04-02T02:13:27.000Z,9
2023-04-02T02:14:32.000Z,9.3
2023-04-02T02:15:38.000Z,8.7
2023-04-02T02:16:44.000Z,9
2023-04-02T02:17:50.000Z,8.3
2023-04-02T02:18:56.000Z,8.7
2023-04-02T02:22:14.000Z,9
2023-04-02T02:23:20.000Z,9.3
2023-04-02T02:24:26.000Z,8.7
2023-04-02T02:26:38.000Z,8.3
2023-04-02T02:27:44.000Z,9.3
2023-04-02T02:28:51.000Z,9
2023-04-02T02:29:56.000Z,8.7
2023-04-02T02:31:02.000Z,8.7
2023-04-02T02:32:07.000Z,8.3
2023-04-02T02:33:13.000Z,8.3
2023-04-02T02:34:19.000Z,8.7
2023-04-02T02:35:25.000Z,9.3
2023-04-02T02:36:31.000Z,9.3
2023-04-02T02:37:37.000Z,8.7
2023-04-02T02:38:43.000Z,9
2023-04-02T02:39:49.000Z,8.7
2023-04-02T02:42:01.000Z,8
2023-04-02T02:43:08.000Z,8.7
2023-04-02T02:44:14.000Z,8
2023-04-02T02:45:20.000Z,9
2023-04-02T02:46:26.000Z,8.3
2023-04-02T02:47:31.000Z,8.7
2023-04-02T02:48:37.000Z,9.6
2023-04-02T02:49:43.000Z,8.7
2023-04-02T02:50:49.000Z,8.7
2023-04-02T02:51:55.000Z,8.7
2023-04-02T02:54:07.000Z,9.3
2023-04-02T02:55:13.000Z,8.7
2023-04-02T02:56:20.000Z,9
2023-04-02T02:57:26.000Z,9
2023-04-02T02:58:32.000Z,8.3
2023-04-02T02:59:38.000Z,8.7
2023-04-02T03:00:44.000Z,8
2023-04-02T03:01:49.000Z,9.3
2023-04-02T03:02:55.000Z,8.3
2023-04-02T03:04:01.000Z,8
2023-04-02T03:05:06.000Z,8.3
2023-04-02T03:06:11.000Z,8
2023-04-02T03:07:17.000Z,8.7
2023-04-02T03:08:23.000Z,8.7
2023-04-02T03:09:29.000Z,8.7
2023-04-02T03:10:36.000Z,8.3
2023-04-02T03:12:48.000Z,7.7
2023-04-02T03:13:54.000Z,8.3
2023-04-02T03:16:06.000Z,8.3
2023-04-02T03:17:12.000Z,8.7
2023-04-02T03:18:18.000Z,8.7
2023-04-02T03:19:23.000Z,9
2023-04-02T03:20:28.000Z,8.3
2023-04-02T03:21:34.000Z,8.7
2023-04-02T03:22:40.000Z,8
2023-04-02T03:23:47.000Z,8.7
2023-04-02T03:24:53.000Z,9
2023-04-02T03:25:59.000Z,9
2023-04-02T03:27:05.000Z,8.3
2023-04-02T03:28:11.000Z,9
2023-04-02T03:29:17.000Z,9
2023-04-02T03:30:23.000Z,8.7
2023-04-02T03:32:34.000Z,8.3
2023-04-02T03:33:39.000Z,8.7
2023-04-02T03:34:45.000Z,8.3
2023-04-02T03:35:51.000Z,8.7
2023-04-02T03:38:03.000Z,8
2023-04-02T03:39:10.000Z,7.7
2023-04-02T03:40:15.000Z,8.3
2023-04-02T03:41:20.000Z,8
2023-04-02T03:42:26.000Z,8.7
2023-04-02T03:43:32.000Z,8
2023-04-02T03:44:38.000Z,8.7
2023-04-02T03:45:44.000Z,8
2023-04-02T03:46:50.000Z,9
2023-04-02T03:49:02.000Z,8.3
2023-04-02T03:50:08.000Z,7.7
2023-04-02T03:51:14.000Z,9
2023-04-02T03:52:20.000Z,8.7
2023-04-02T03:53:27.000Z,8.7
2023-04-02T03:54:33.000Z,9.3
2023-04-02T03:55:38.000Z,8.7
2023-04-02T03:56:44.000Z,9
2023-04-02T03:57:50.000Z,9
2023-04-02T03:58:56.000Z,9
2023-04-02T04:00:02.000Z,8
2023-04-02T04:01:08.000Z,8
2023-04-02T04:02:14.000Z,8.7
2023-04-02T04:03:19.000Z,8
2023-04-02T04:05:31.000Z,9
2023-04-02T04:07:42.000Z,8.7
2023-04-02T04:08:48.000Z,8.7
2023-04-02T04:09:54.000Z,8.7
2023-04-02T04:11:00.000Z,9
2023-04-02T04:12:06.000Z,7.7
2023-04-02T04:13:12.000Z,8.7
2023-04-02T04:14:18.000Z,9.3
2023-04-02T04:15:24.000Z,8.7
2023-04-02T04:16:30.000Z,8.3
2023-04-02T04:17:36.000Z,7.7
2023-04-02T04:18:42.000Z,7.7
2023-04-02T04:19:48.000Z,8
2023-04-02T04:22:00.000Z,8.3
2023-04-02T04:23:06.000Z,8.7
2023-04-02T04:24:12.000Z,7.7
2023-04-02T04:25:18.000Z,8.7
2023-04-02T04:28:36.000Z,8
2023-04-02T04:29:42.000Z,9
2023-04-02T04:30:48.000Z,8
2023-04-02T04:31:54.000Z,8.7
2023-04-02T04:33:00.000Z,8
2023-04-02T04:34:06.000Z,8
2023-04-02T04:35:11.000Z,8
2023-04-02T04:37:24.000Z,8.3
2023-04-02T04:38:30.000Z,8.3
2023-04-02T04:39:36.000Z,8.3
2023-04-02T04:40:42.000Z,8.7
2023-04-02T04:44:00.000Z,8.3
2023-04-02T04:45:06.000Z,8.3
2023-04-02T04:46:12.000Z,8.3
2023-04-02T04:47:18.000Z,8
2023-04-02T04:48:25.000Z,9
2023-04-02T04:49:30.098Z,8.3
2023-04-02T04:50:36.000Z,8
2023-04-02T04:51:42.000Z,8.7
2023-04-02T04:52:48.000Z,8.3
2023-04-02T04:53:54.000Z,7.7
2023-04-02T04:55:00.000Z,8.7
2023-04-02T04:56:06.000Z,8.7
2023-04-02T04:57:12.000Z,8.7
2023-04-02T04:58:18.000Z,8.7
2023-04-02T04:59:24.000Z,8.3
2023-04-02T05:00:30.000Z,8.7
2023-04-02T05:01:36.000Z,8.7
2023-04-02T05:02:42.000Z,8.3
2023-04-02T05:03:48.000Z,8
2023-04-02T05:06:00.000Z,8
2023-04-02T05:07:05.000Z,8.7
2023-04-02T05:08:10.000Z,8
2023-04-02T05:12:34.000Z,8.7
2023-04-02T05:13:40.000Z,8.3
2023-04-02T05:14:46.000Z,8.7
2023-04-02T05:16:59.000Z,8
2023-04-02T05:18:05.000Z,8.3
2023-04-02T05:20:17.000Z,8.3
2023-04-02T05:22:29.000Z,8
2023-04-02T05:23:34.000Z,8.7
2023-04-02T05:24:40.000Z,6.7
2023-04-02T05:25:45.000Z,8
2023-04-02T05:26:51.000Z,8.7
2023-04-02T05:27:56.000Z,8.3
2023-04-02T05:29:02.000Z,8.7
2023-04-02T05:30:08.000Z,7.7
2023-04-02T05:31:15.000Z,8.7
2023-04-02T05:32:21.000Z,8.3
2023-04-02T05:33:27.000Z,8.7
2023-04-02T05:34:33.000Z,8
2023-04-02T05:35:39.000Z,7.7
2023-04-02T05:36:45.000Z,8
2023-04-02T05:37:50.000Z,8.3
2023-04-02T05:38:55.000Z,8.3
2023-04-02T05:40:01.000Z,7.7
2023-04-02T05:41:07.000Z,8
2023-04-02T05:42:13.000Z,8.7
2023-04-02T05:43:19.000Z,8
2023-04-02T05:44:26.000Z,7
2023-04-02T05:45:32.000Z,7.7
2023-04-02T05:46:38.000Z,9
2023-04-02T05:47:44.000Z,8.3
2023-04-02T05:49:56.000Z,8.3
2023-04-02T05:51:02.000Z,8
2023-04-02T05:52:08.000Z,7.4
2023-04-02T05:53:13.000Z,7.7
2023-04-02T05:54:19.000Z,8
2023-04-02T05:55:25.000Z,7.7
2023-04-02T05:56:31.000Z,8
2023-04-02T05:57:37.000Z,8
2023-04-02T05:58:43.000Z,8.7
2023-04-02T05:59:50.000Z,7.4
2023-04-02T06:00:56.000Z,7.7
2023-04-02T06:02:01.000Z,8
2023-04-02T06:04:12.000Z,8
2023-04-02T06:05:18.000Z,8.3
2023-04-02T06:06:24.000Z,8.3
2023-04-02T06:07:30.000Z,9
2023-04-02T06:08:36.000Z,9
2023-04-02T06:09:42.000Z,9
2023-04-02T06:11:54.000Z,8
2023-04-02T06:13:00.000Z,8.3
2023-04-02T06:14:07.000Z,7.7
2023-04-02T06:15:13.000Z,7.4
2023-04-02T06:16:19.000Z,7.7
2023-04-02T06:17:24.000Z,8
2023-04-02T06:18:30.000Z,8
2023-04-02T06:19:36.000Z,9
2023-04-02T06:20:42.000Z,8
2023-04-02T06:22:54.000Z,8
2023-04-02T06:24:00.000Z,8
2023-04-02T06:25:05.000Z,8
2023-04-02T06:26:10.000Z,8
2023-04-02T06:27:17.000Z,8
2023-04-02T06:28:23.000Z,8.7
2023-04-02T06:29:29.000Z,7.7
2023-04-02T06:30:35.000Z,8
2023-04-02T06:31:41.000Z,8.7
2023-04-02T06:32:47.000Z,7.4
2023-04-02T06:33:53.000Z,8.3
2023-04-02T06:34:59.000Z,8
2023-04-02T06:36:05.000Z,8
2023-04-02T06:37:10.000Z,8
2023-04-02T06:38:15.000Z,8.3
2023-04-02T06:39:22.000Z,7.4
2023-04-02T06:40:28.000Z,7.7
2023-04-02T06:41:34.000Z,8.3
2023-04-02T06:42:40.000Z,7
2023-04-02T06:44:52.000Z,8.3
2023-04-02T06:45:58.000Z,8
2023-04-02T06:47:04.000Z,8.7
2023-04-02T06:48:10.000Z,7.7
2023-04-02T06:49:16.000Z,7.7
2023-04-02T06:50:22.000Z,7.7
2023-04-02T06:51:28.000Z,8.3
2023-04-02T06:52:33.000Z,7.7
2023-04-02T06:53:40.000Z,8.7
2023-04-02T06:54:46.000Z,8.3
2023-04-02T06:55:52.000Z,8.3
2023-04-02T06:56:58.000Z,8.3
2023-04-02T06:58:04.000Z,7.4
2023-04-02T06:59:10.000Z,8.3
2023-04-02T07:00:16.000Z,7.7
2023-04-02T07:01:22.000Z,8.3
2023-04-02T07:03:34.000Z,8
2023-04-02T07:04:40.000Z,7.4
2023-04-02T07:06:52.000Z,8.3
2023-04-02T07:07:59.000Z,7.4
2023-04-02T07:09:04.000Z,8.3
2023-04-02T07:10:10.000Z,7.7
2023-04-02T07:12:22.000Z,8.3
2023-04-02T07:14:33.000Z,7.7
2023-04-02T07:15:38.000Z,8.3
2023-04-02T07:17:49.000Z,7.7
2023-04-02T07:18:55.000Z,7.4
2023-04-02T07:20:01.000Z,8
2023-04-02T07:21:08.000Z,8
2023-04-02T07:23:20.000Z,8
2023-04-02T07:25:32.000Z,7.7
2023-04-02T07:26:38.000Z,7.4
2023-04-02T07:27:44.000Z,7.4
2023-04-02T07:29:56.000Z,7.7
2023-04-02T07:31:02.000Z,7.4
2023-04-02T07:32:07.000Z,7.4
2023-04-02T07:33:12.000Z,8
2023-04-02T07:34:18.000Z,8
2023-04-02T07:35:25.000Z,7.4
2023-04-02T07:36:31.000Z,7.7
2023-04-02T07:39:49.000Z,7.7
2023-04-02T07:40:55.000Z,7.4
2023-04-02T07:42:01.000Z,8
2023-04-02T07:43:07.000Z,8
2023-04-02T07:44:13.000Z,7.7
2023-04-02T07:45:19.000Z,8.3
2023-04-02T07:46:25.000Z,8.3
2023-04-02T07:47:31.000Z,8
2023-04-02T07:48:38.000Z,7
2023-04-02T07:49:44.000Z,7.7
2023-04-02T07:50:50.000Z,7.7
2023-04-02T07:51:56.000Z,7.7
2023-04-02T07:53:02.000Z,8
2023-04-02T07:54:08.000Z,8
2023-04-02T07:56:20.000Z,7.7
2023-04-02T07:57:26.000Z,7.4
2023-04-02T07:58:31.000Z,8
2023-04-02T07:59:37.000Z,7.4
2023-04-02T08:01:49.000Z,7.7
2023-04-02T08:02:56.000Z,7.4
2023-04-02T08:04:02.000Z,7.7
2023-04-02T08:05:08.000Z,8
2023-04-02T08:06:14.000Z,8.3
2023-04-02T08:07:20.000Z,7.7
2023-04-02T08:08:26.000Z,7.4
2023-04-02T08:09:32.000Z,8
2023-04-02T08:10:38.000Z,8
2023-04-02T08:11:44.000Z,8
2023-04-02T08:12:49.000Z,7
2023-04-02T08:13:55.000Z,7.7
2023-04-02T08:15:01.000Z,8.7
2023-04-02T08:16:07.000Z,7.4
2023-04-02T08:17:13.000Z,7.4
2023-04-02T08:18:20.000Z,7.4
2023-04-02T08:19:26.000Z,8
2023-04-02T08:20:32.000Z,7.7
2023-04-02T08:21:37.000Z,8
2023-04-02T08:22:42.000Z,7.4
2023-04-02T08:23:48.000Z,7.7
2023-04-02T08:24:54.000Z,7.4
2023-04-02T08:26:00.000Z,7.4
2023-04-02T08:27:06.000Z,7.7
2023-04-02T08:28:12.000Z,7.4
2023-04-02T08:29:18.000Z,7.7
2023-04-02T08:30:24.000Z,8
2023-04-02T08:31:31.000Z,7.4
2023-04-02T08:32:37.000Z,8.3
2023-04-02T08:34:48.000Z,7.7
2023-04-02T08:35:53.000Z,7.4
2023-04-02T08:36:59.000Z,8.3
2023-04-02T08:38:05.000Z,8
2023-04-02T08:39:11.000Z,7.7
2023-04-02T08:40:17.000Z,7.4
2023-04-02T08:41:23.000Z,7.4
2023-04-02T08:42:29.000Z,7.4
2023-04-02T08:43:35.000Z,7.7
2023-04-02T08:44:42.000Z,7.7
2023-04-02T08:46:53.000Z,7.7
2023-04-02T08:49:04.000Z,7.7
2023-04-02T08:50:10.000Z,7.7
2023-04-02T08:51:15.000Z,8
2023-04-02T08:52:20.000Z,7.7
2023-04-02T08:53:26.000Z,7.4
2023-04-02T08:54:32.000Z,7.4
2023-04-02T08:55:38.000Z,8
2023-04-02T08:56:44.000Z,7.7
2023-04-02T08:57:50.000Z,7.4
2023-04-02T08:58:57.000Z,7.7
2023-04-02T09:00:03.000Z,7.7
2023-04-02T09:01:09.000Z,8
2023-04-02T09:02:15.000Z,7.7
2023-04-02T09:03:20.000Z,8
2023-04-02T09:04:25.000Z,8
2023-04-02T09:05:31.000Z,7
2023-04-02T09:06:37.000Z,7.7
2023-04-02T09:07:43.000Z,7.4
2023-04-02T09:08:49.000Z,7.7
2023-04-02T09:11:02.000Z,7.7
2023-04-02T09:12:08.000Z,8.7
2023-04-02T09:13:14.000Z,8
2023-04-02T09:15:26.000Z,7.7
2023-04-02T09:16:32.000Z,7.7
2023-04-02T09:17:38.000Z,8.3
2023-04-02T09:18:43.000Z,7.7
2023-04-02T09:19:48.000Z,7
2023-04-02T09:20:54.000Z,7.7
2023-04-02T09:22:00.000Z,8
2023-04-02T09:23:06.000Z,6.7
2023-04-02T09:24:12.000Z,7.7
2023-04-02T09:25:18.000Z,7.4
2023-04-02T09:26:25.000Z,7.4
2023-04-02T09:27:31.000Z,7.4
2023-04-02T09:28:37.000Z,7.7
2023-04-02T09:29:43.000Z,8
2023-04-02T09:30:48.000Z,7
2023-04-02T09:31:53.000Z,7.4
2023-04-02T09:32:59.000Z,7.7
2023-04-02T09:34:05.000Z,7
2023-04-02T09:35:11.000Z,8.3
2023-04-02T09:36:17.000Z,8
2023-04-02T09:37:23.000Z,7.4
2023-04-02T09:40:42.000Z,7.7
2023-04-02T09:41:48.000Z,8.7
2023-04-02T09:42:54.000Z,7
2023-04-02T09:44:00.000Z,7.7
2023-04-02T09:45:05.000Z,8.3
2023-04-02T09:46:10.000Z,8.3
2023-04-02T09:47:16.000Z,7.7
2023-04-02T09:48:22.000Z,7.4
2023-04-02T09:49:28.000Z,7.7
2023-04-02T09:52:46.000Z,7.4
2023-04-02T09:53:53.000Z,7.7
2023-04-02T09:54:59.000Z,7.4
2023-04-02T09:56:05.000Z,7.4
2023-04-02T09:57:11.000Z,7.7
2023-04-02T09:58:17.000Z,8
2023-04-02T09:59:23.000Z,7.7
2023-04-02T10:00:29.000Z,8.7
2023-04-02T10:01:34.000Z,7.4
2023-04-02T10:02:40.000Z,7.4
2023-04-02T10:03:46.000Z,7.7
2023-04-02T10:04:52.000Z,8
2023-04-02T10:07:05.000Z,7.4
2023-04-02T10:08:11.000Z,7.7
2023-04-02T10:09:17.000Z,7.4
2023-04-02T10:10:23.000Z,7.7
2023-04-02T10:11:29.000Z,7.4
2023-04-02T10:13:41.000Z,8
2023-04-02T10:14:47.000Z,7.4
2023-04-02T10:15:52.000Z,7.7
2023-04-02T10:18:04.000Z,7.7
2023-04-02T10:19:10.000Z,7
2023-04-02T10:20:16.000Z,7.7
2023-04-02T10:21:22.000Z,8
2023-04-02T10:22:29.000Z,8
2023-04-02T10:23:35.000Z,7.7
2023-04-02T10:24:41.000Z,8.3
2023-04-02T10:25:47.000Z,8
2023-04-02T10:26:53.000Z,7.7
2023-04-02T10:27:59.000Z,7.7
2023-04-02T10:29:05.000Z,7.7
2023-04-02T10:30:11.000Z,8
2023-04-02T10:31:16.000Z,7.4
2023-04-02T10:32:22.000Z,8
2023-04-02T10:33:28.000Z,7.4
2023-04-02T10:35:41.000Z,6.7
2023-04-02T10:36:47.000Z,7.4
2023-04-02T10:37:53.000Z,7.4
2023-04-02T10:40:05.000Z,7.7
2023-04-02T10:41:11.000Z,7.7
2023-04-02T10:42:17.000Z,7.4
2023-04-02T10:43:23.000Z,7.7
2023-04-02T10:44:29.000Z,7.4
2023-04-02T10:45:35.000Z,8.3
2023-04-02T10:47:46.000Z,7.7
2023-04-02T10:48:52.000Z,8
2023-04-02T10:49:58.000Z,7.7
2023-04-02T10:51:05.000Z,8.3
2023-04-02T10:52:11.000Z,8.3
2023-04-02T10:53:17.000Z,7.4
2023-04-02T10:54:23.000Z,8.3
2023-04-02T10:55:29.000Z,7
2023-04-02T10:58:47.000Z,8.3
2023-04-02T10:59:53.000Z,8
2023-04-02T11:00:58.000Z,8
2023-04-02T11:02:04.000Z,7.4
2023-04-02T11:03:10.000Z,8.3
2023-04-02T11:05:22.000Z,8
2023-04-02T11:07:35.000Z,7.4
2023-04-02T11:08:41.000Z,7.7
2023-04-02T11:09:47.000Z,9
2023-04-02T11:10:53.000Z,8.3
2023-04-02T11:11:59.000Z,8.3
2023-04-02T11:13:05.000Z,8.3
2023-04-02T11:14:11.000Z,7.4
2023-04-02T11:15:16.000Z,7.7
2023-04-02T11:16:22.000Z,8
2023-04-02T11:17:28.000Z,8.7
2023-04-02T11:18:35.000Z,8.7
2023-04-02T11:19:41.000Z,7.7
2023-04-02T11:20:47.000Z,7.7
2023-04-02T11:21:53.000Z,7.4
2023-04-02T11:22:59.000Z,8.3
2023-04-02T11:24:05.000Z,8.3
2023-04-02T11:25:10.000Z,8
2023-04-02T11:26:16.000Z,7.7
2023-04-02T11:27:22.000Z,9
2023-04-02T11:28:27.000Z,8
2023-04-02T11:29:32.000Z,7.7
2023-04-02T11:30:38.000Z,8.3
2023-04-02T11:31:44.000Z,7
2023-04-02T11:32:51.000Z,7.7
2023-04-02T11:33:57.000Z,9.3
2023-04-02T11:35:03.000Z,7.7
2023-04-02T11:36:09.000Z,8
2023-04-02T11:37:15.000Z,7.4
2023-04-02T11:38:21.000Z,8
2023-04-02T11:39:27.000Z,7.7
2023-04-02T11:41:38.000Z,8
2023-04-02T11:42:44.000Z,8.7
2023-04-02T11:43:49.000Z,8
2023-04-02T11:44:55.000Z,8.3
2023-04-02T11:48:14.000Z,8.3
2023-04-02T11:49:19.000Z,8.3
2023-04-02T11:50:25.000Z,8.7
2023-04-02T11:51:30.000Z,8.7
2023-04-02T11:52:36.000Z,8.3
2023-04-02T11:53:42.000Z,8.7
2023-04-02T11:54:48.000Z,8
2023-04-02T11:55:54.000Z,7.7
2023-04-02T11:58:06.000Z,9
2023-04-02T12:00:19.000Z,8
2023-04-02T12:01:25.000Z,8.3
2023-04-02T12:03:37.000Z,8.3
2023-04-02T12:04:43.000Z,8.7
2023-04-02T12:05:48.000Z,9
2023-04-02T12:06:54.000Z,8.7
2023-04-02T12:08:00.000Z,7.7
2023-04-02T12:09:06.000Z,8.3
2023-04-02T12:10:12.000Z,8.7
2023-04-02T12:11:18.000Z,8.3
2023-04-02T12:13:30.000Z,7.7
2023-04-02T12:14:37.000Z,8.7
2023-04-02T12:15:43.000Z,9
2023-04-02T12:16:49.000Z,8.7
2023-04-02T12:17:55.000Z,8
2023-04-02T12:19:01.000Z,8.3
2023-04-02T12:20:06.000Z,8.3
2023-04-02T12:21:12.000Z,9
2023-04-02T12:22:18.000Z,8.3
2023-04-02T12:23:24.000Z,8
2023-04-02T12:25:36.000Z,9
2023-04-02T12:26:42.000Z,9.6
2023-04-02T12:27:49.000Z,9.3
2023-04-02T12:28:55.000Z,8.7
2023-04-02T12:30:01.000Z,8.3
2023-04-02T12:31:07.000Z,8.7
2023-04-02T12:32:13.000Z,8.3
2023-04-02T12:33:19.000Z,8.7
2023-04-02T12:34:24.000Z,8.3
2023-04-02T12:35:30.000Z,8.3
2023-04-02T12:36:35.000Z,8.3
2023-04-02T12:37:40.000Z,8.7
2023-04-02T12:38:46.000Z,9
2023-04-02T12:39:52.000Z,8.7
2023-04-02T12:40:59.000Z,8
2023-04-02T12:42:05.000Z,8.7
2023-04-02T12:43:11.000Z,8.7
2023-04-02T12:44:17.000Z,8.3
2023-04-02T12:45:23.000Z,8.3
2023-04-02T12:47:35.000Z,8.7
2023-04-02T12:48:41.000Z,9
2023-04-02T12:49:47.000Z,8.7
2023-04-02T12:50:53.000Z,9
2023-04-02T12:53:05.000Z,9
2023-04-02T12:54:10.000Z,9.3
2023-04-02T12:55:15.000Z,9.3
2023-04-02T12:56:21.000Z,8.7
2023-04-02T12:58:33.000Z,9.3
2023-04-02T12:59:39.000Z,8.7
2023-04-02T13:00:45.000Z,9.9
2023-04-02T13:01:51.000Z,9.6
2023-04-02T13:02:57.000Z,9
2023-04-02T13:04:03.000Z,9
2023-04-02T13:05:09.000Z,9.3
2023-04-02T13:06:15.000Z,9.3
2023-04-02T13:07:22.000Z,9
2023-04-02T13:08:28.000Z,9.3
2023-04-02T13:09:33.000Z,9
2023-04-02T13:10:39.000Z,9
2023-04-02T13:11:45.000Z,9.6
2023-04-02T13:12:51.000Z,9
2023-04-02T13:13:57.000Z,9.6
2023-04-02T13:15:03.000Z,9.6
2023-04-02T13:16:09.000Z,9
2023-04-02T13:17:15.000Z,8.3
2023-04-02T13:18:20.000Z,9.3
2023-04-02T13:19:26.000Z,8.3
2023-04-02T13:20:32.000Z,9
2023-04-02T13:21:38.000Z,9
2023-04-02T13:22:44.000Z,9.3
2023-04-02T13:23:50.000Z,8.7
2023-04-02T13:24:56.000Z,9
2023-04-02T13:26:02.000Z,9
2023-04-02T13:27:08.000Z,9.6
2023-04-02T13:28:14.000Z,9.6
2023-04-02T13:31:32.000Z,9.3
2023-04-02T13:32:38.000Z,9.3
2023-04-02T13:33:43.000Z,9.3
2023-04-02T13:34:49.000Z,9
2023-04-02T13:35:55.000Z,9.6
2023-04-02T13:37:01.000Z,9.6
2023-04-02T13:38:07.000Z,9.3
2023-04-02T13:39:13.000Z,9.6
2023-04-02T13:40:19.000Z,9
2023-04-02T13:41:25.000Z,9.6
2023-04-02T13:42:31.000Z,8.7
2023-04-02T13:43:37.000Z,9.9
2023-04-02T13:44:43.000Z,9.9
2023-04-02T13:45:48.000Z,9.6
2023-04-02T13:48:00.000Z,10.9
2023-04-02T13:49:06.000Z,9.6
2023-04-02T13:50:12.000Z,9.6
2023-04-02T13:52:24.000Z,9.3
2023-04-02T13:53:30.000Z,9.6
2023-04-02T13:54:36.000Z,9.6
2023-04-02T13:56:48.000Z,9
2023-04-02T13:57:54.000Z,9.3
2023-04-02T13:59:00.000Z,9.6
2023-04-02T14:00:06.000Z,8.7
2023-04-02T14:01:11.000Z,10.6
2023-04-02T14:02:17.000Z,10.6
2023-04-02T14:04:29.000Z,9.9
2023-04-02T14:05:35.000Z,9.6
2023-04-02T14:06:41.000Z,9.3
2023-04-02T14:07:47.000Z,9.6
2023-04-02T14:08:53.000Z,9.6
2023-04-02T14:09:59.000Z,9.6
2023-04-02T14:12:11.000Z,9.3
2023-04-02T14:13:17.000Z,9.3
2023-04-02T14:14:23.000Z,9.3
2023-04-02T14:15:29.000Z,9.3
2023-04-02T14:16:35.000Z,9.6
2023-04-02T14:17:41.000Z,10.3
2023-04-02T14:18:47.000Z,9.6
2023-04-02T14:20:59.000Z,9
2023-04-02T14:22:05.000Z,9.6
2023-04-02T14:23:11.000Z,10.3
2023-04-02T14:24:17.000Z,9.6
2023-04-02T14:26:29.000Z,9.3
2023-04-02T14:27:35.000Z,9.6
2023-04-02T14:28:41.000Z,9.6
2023-04-02T14:29:47.000Z,9.6
2023-04-02T14:30:53.000Z,9.3
2023-04-02T14:31:59.000Z,9.3
2023-04-02T14:33:05.000Z,9.6
2023-04-02T14:34:11.000Z,10.6
2023-04-02T14:35:17.000Z,9.6
2023-04-02T14:36:23.000Z,9.6
2023-04-02T14:37:29.000Z,9
2023-04-02T14:38:35.000Z,9.6
2023-04-02T14:40:47.000Z,9.9
2023-04-02T14:41:53.000Z,9.9
2023-04-02T14:42:59.000Z,9.6
2023-04-02T14:45:12.000Z,9.9
2023-04-02T14:46:17.000Z,9
2023-04-02T14:48:29.000Z,9.6
2023-04-02T14:49:35.000Z,9.9
2023-04-02T14:51:47.000Z,9.9
2023-04-02T14:53:59.000Z,9.6
2023-04-02T14:56:11.000Z,9.6
2023-04-02T14:57:17.000Z,9.9
2023-04-02T14:58:23.000Z,9.3
2023-04-02T14:59:30.000Z,9.9
2023-04-02T15:00:35.000Z,9.6
2023-04-02T15:01:41.000Z,9.9
2023-04-02T15:02:47.000Z,9.3
2023-04-02T15:03:53.000Z,10.6
2023-04-02T15:04:59.000Z,9.6
2023-04-02T15:06:04.000Z,10.3
2023-04-02T15:07:10.000Z,9.9
2023-04-02T15:09:22.000Z,8.7
2023-04-02T15:10:28.000Z,9.6
2023-04-02T15:11:35.000Z,9.9
2023-04-02T15:12:41.000Z,9.6
2023-04-02T15:13:47.000Z,9.9
2023-04-02T15:14:53.000Z,9.9
2023-04-02T15:15:59.000Z,9.6
2023-04-02T15:17:05.000Z,10.6
2023-04-02T15:18:11.000Z,9.9
2023-04-02T15:19:16.000Z,9.6
2023-04-02T15:21:27.000Z,10.3
2023-04-02T15:22:33.000Z,9.3
2023-04-02T15:23:39.000Z,9.6
2023-04-02T15:24:45.000Z,10.3
2023-04-02T15:25:51.000Z,9.6
2023-04-02T15:26:58.000Z,9.6
2023-04-02T15:28:04.000Z,9.3
2023-04-02T15:29:10.000Z,9.9
2023-04-02T15:30:16.000Z,9.9
2023-04-02T15:32:28.000Z,9.9
2023-04-02T15:33:34.000Z,9.3
2023-04-02T15:34:39.000Z,10.3
2023-04-02T15:35:45.000Z,10.3
2023-04-02T15:36:51.000Z,9.6
2023-04-02T15:37:57.000Z,9.6
2023-04-02T15:39:04.020Z,9.3
2023-04-02T15:41:16.000Z,9.3
2023-04-02T15:42:21.000Z,10.3
2023-04-02T15:43:26.000Z,10.9
2023-04-02T15:44:32.000Z,9.6
2023-04-02T15:45:38.000Z,9.9
2023-04-02T15:46:44.000Z,10.6
2023-04-02T15:47:50.000Z,9.6
2023-04-02T15:48:56.000Z,10.3
2023-04-02T15:50:02.000Z,9.6
2023-04-02T15:51:08.000Z,9.6
2023-04-02T15:52:14.000Z,9.3
2023-04-02T15:53:20.000Z,9.6
2023-04-02T15:54:26.000Z,9
2023-04-02T15:55:31.000Z,9.9
2023-04-02T15:56:37.000Z,10.3
2023-04-02T15:57:43.000Z,9.6
2023-04-02T15:58:49.000Z,9.6
2023-04-02T15:59:55.000Z,9.6
2023-04-02T16:01:01.000Z,9.6
2023-04-02T16:02:07.000Z,9.6
2023-04-02T16:03:13.000Z,10.3
2023-04-02T16:04:19.000Z,9.6
2023-04-02T16:05:25.000Z,9.9
2023-04-02T16:06:31.000Z,10.6
2023-04-02T16:07:36.000Z,9.3
2023-04-02T16:08:42.000Z,10.3
2023-04-02T16:09:48.000Z,9
2023-04-02T16:10:54.000Z,9.6
2023-04-02T16:13:06.000Z,9.9
2023-04-02T16:16:24.000Z,10.3
2023-04-02T16:17:30.000Z,9.6
2023-04-02T16:19:42.000Z,9.9
2023-04-02T16:20:49.000Z,9.3
2023-04-02T16:21:54.000Z,9.9
2023-04-02T16:24:05.000Z,9.9
2023-04-02T16:25:10.000Z,9.6
2023-04-02T16:27:21.000Z,9.6
2023-04-02T16:28:27.000Z,9.6
2023-04-02T16:29:33.000Z,9.3
2023-04-02T16:30:39.000Z,10.6
2023-04-02T16:31:45.000Z,9.6
2023-04-02T16:32:51.000Z,9.3
2023-04-02T16:33:57.000Z,9.3
2023-04-02T16:35:04.000Z,10.6
2023-04-02T16:36:10.000Z,9.9
2023-04-02T16:38:22.000Z,10.3
2023-04-02T16:39:28.000Z,9.6
2023-04-02T16:40:33.000Z,9.6
2023-04-02T16:41:39.000Z,9.6
2023-04-02T16:43:51.000Z,10.6
2023-04-02T16:44:57.000Z,10.6
2023-04-02T16:46:03.000Z,9.9
2023-04-02T16:47:09.000Z,9.9
2023-04-02T16:48:15.000Z,9.9
2023-04-02T16:49:21.000Z,9.9
2023-04-02T16:50:28.000Z,9.9
2023-04-02T16:53:46.000Z,9.9
2023-04-02T16:54:51.000Z,9.9
2023-04-02T16:55:57.000Z,9.6
2023-04-02T16:57:03.000Z,10.9
2023-04-02T16:58:09.000Z,9.9
2023-04-02T16:59:15.000Z,9.9
2023-04-02T17:00:21.000Z,9.9
2023-04-02T17:01:27.000Z,10.6
2023-04-02T17:02:33.000Z,9.9
2023-04-02T17:03:39.000Z,9.9
2023-04-02T17:04:46.000Z,9.9
2023-04-02T17:05:52.000Z,9.6
2023-04-02T17:06:58.000Z,9
2023-04-02T17:08:04.000Z,9.9
2023-04-02T17:09:09.000Z,9.9
2023-04-02T17:10:15.000Z,10.6
2023-04-02T17:11:21.000Z,10.3
2023-04-02T17:12:27.000Z,9.6
2023-04-02T17:13:33.000Z,10.3
2023-04-02T17:14:39.000Z,9.3
2023-04-02T17:16:50.000Z,9.6
2023-04-02T17:17:56.000Z,9.6
2023-04-02T17:19:01.000Z,10.6
2023-04-02T17:20:07.000Z,10.3
2023-04-02T17:21:13.000Z,9.6
2023-04-02T17:22:19.000Z,9.6
2023-04-02T17:23:25.000Z,9.6
2023-04-02T17:24:31.000Z,9.6
2023-04-02T17:25:37.000Z,9.6
2023-04-02T17:26:43.000Z,9.6
2023-04-02T17:27:49.000Z,10.3
2023-04-02T17:28:55.000Z,9.6